createdAt,value
2022-10-04T00:01:49.158Z,130.50
2022-10-04T00:04:20.697Z,137.27
2022-10-04T00:06:52.856Z,162.20
2022-10-04T00:09:23.453Z,145.47
2022-10-04T00:11:51.793Z,182.43
2022-10-04T00:14:24.188Z,153.70
2022-10-04T00:16:52.775Z,184.67
2022-10-04T00:19:39.065Z,142.33
2022-10-04T00:22:20.445Z,140.93
2022-10-04T00:25:20.683Z,181.90
2022-10-04T00:28:25.468Z,135.23
2022-10-04T00:31:21.976Z,139.00
2022-10-04T00:33:51.855Z,156.93
2022-10-04T00:36:47.895Z,139.13
2022-10-04T00:39:41.634Z,129.40
2022-10-04T00:42:33.611Z,115.23
2022-10-04T00:45:04.212Z,140.87
2022-10-04T00:47:35.224Z,166.37
2022-10-04T00:50:16.599Z,135.20
2022-10-04T00:52:46.512Z,193.87
2022-10-04T00:55:22.977Z,125.63
2022-10-04T00:57:51.685Z,131.43
2022-10-04T01:00:21.336Z,127.20
2022-10-04T01:02:54.106Z,142.00
2022-10-04T01:05:24.433Z,149.90
2022-10-04T01:07:55.663Z,155.03
2022-10-04T01:10:26.752Z,104.47
2022-10-04T01:12:58.684Z,147.03
2022-10-04T01:15:32.773Z,118.40
2022-10-04T01:18:16.556Z,167.67
2022-10-04T01:20:54.322Z,145.70
2022-10-04T01:23:41.596Z,179.23
2022-10-04T01:26:38.252Z,120.27
2022-10-04T01:29:13.097Z,139.23
2022-10-04T01:31:43.236Z,137.17
2022-10-04T01:34:14.155Z,174.33
2022-10-04T01:36:41.967Z,135.90
2022-10-04T01:39:11.169Z,119.10
2022-10-04T01:41:46.080Z,139.50
2022-10-04T01:44:20.040Z,137.77
2022-10-04T01:46:48.053Z,214.60
2022-10-04T01:49:19.749Z,124.67
2022-10-04T01:51:54.460Z,163.63
2022-10-04T01:54:30.888Z,133.03
2022-10-04T01:57:01.336Z,166.60
2022-10-04T01:59:31.536Z,147.57
2022-10-04T02:02:04.103Z,193.60
2022-10-04T02:04:34.608Z,162.37
2022-10-04T02:07:03.235Z,174.00
2022-10-04T02:09:34.546Z,259.63
2022-10-04T02:12:02.994Z,163.03
2022-10-04T02:14:34.029Z,107.40
2022-10-04T02:17:02.940Z,119.00
2022-10-04T02:19:34.520Z,194.30
2022-10-04T02:22:03.364Z,193.77
2022-10-04T02:24:34.772Z,123.27
2022-10-04T02:27:02.463Z,221.10
2022-10-04T02:29:30.071Z,168.90
2022-10-04T02:32:15.272Z,222.43
2022-10-04T02:34:42.868Z,131.33
2022-10-04T02:37:10.944Z,222.70
2022-10-04T02:39:43.958Z,166.13
2022-10-04T02:42:14.915Z,176.40
2022-10-04T02:44:43.467Z,204.97
2022-10-04T02:47:15.040Z,203.83
2022-10-04T02:49:45.928Z,152.63
2022-10-04T02:52:16.795Z,322.87
2022-10-04T02:54:47.914Z,135.93
2022-10-04T02:57:17.101Z,118.53
2022-10-04T02:59:44.668Z,126.23
2022-10-04T03:02:29.701Z,195.10
2022-10-04T03:05:00.898Z,137.33
2022-10-04T03:07:28.701Z,143.07
2022-10-04T03:09:57.596Z,155.77
2022-10-04T03:12:26.117Z,148.40
2022-10-04T03:14:53.938Z,121.23
2022-10-04T03:17:21.896Z,149.90
2022-10-04T03:19:49.913Z,182.10
2022-10-04T03:22:18.298Z,246.87
2022-10-04T03:24:47.690Z,228.80
2022-10-04T03:27:18.716Z,177.77
2022-10-04T03:29:46.628Z,193.20
2022-10-04T03:32:15.311Z,167.87
2022-10-04T03:34:45.388Z,141.17
2022-10-04T03:37:15.423Z,284.67
2022-10-04T03:39:44.851Z,232.47
2022-10-04T03:42:15.163Z,163.20
2022-10-04T03:44:45.231Z,158.10
2022-10-04T03:47:14.913Z,202.03
2022-10-04T03:49:45.273Z,190.20
2022-10-04T03:52:18.955Z,238.73
2022-10-04T03:54:47.335Z,258.90
2022-10-04T03:57:14.901Z,138.53
2022-10-04T03:59:44.035Z,160.10
2022-10-04T04:02:14.927Z,145.33
2022-10-04T04:04:46.803Z,239.37
2022-10-04T04:07:18.763Z,217.77
2022-10-04T04:09:50.842Z,149.10
2022-10-04T04:12:20.749Z,168.03
2022-10-04T04:14:51.699Z,134.00
2022-10-04T04:17:38.062Z,169.43
2022-10-04T04:20:14.553Z,117.80
2022-10-04T04:22:44.271Z,141.50
2022-10-04T04:25:15.972Z,170.90
2022-10-04T04:27:44.752Z,147.57
2022-10-04T04:30:17.076Z,108.73
2022-10-04T04:32:47.553Z,139.23
2022-10-04T04:35:24.104Z,91.27
2022-10-04T04:38:08.002Z,140.10
2022-10-04T04:40:37.700Z,104.30
2022-10-04T04:43:05.318Z,145.27
2022-10-04T04:45:35.701Z,161.33
2022-10-04T04:48:04.640Z,137.63
2022-10-04T04:50:33.595Z,142.47
2022-10-04T04:53:05.203Z,175.73
2022-10-04T04:55:56.306Z,115.20
2022-10-04T04:58:26.227Z,115.17
2022-10-04T05:00:58.660Z,160.57
2022-10-04T05:03:26.951Z,141.37
2022-10-04T05:05:55.010Z,178.97
2022-10-04T05:08:24.652Z,154.73
2022-10-04T05:10:58.709Z,174.43
2022-10-04T05:13:31.282Z,181.83
2022-10-04T05:16:00.625Z,177.73
2022-10-04T05:18:30.491Z,141.60
2022-10-04T05:21:00.678Z,148.73
2022-10-04T05:23:28.643Z,157.77
2022-10-04T05:25:56.177Z,132.27
2022-10-04T05:28:23.964Z,152.17
2022-10-04T05:31:04.529Z,188.53
2022-10-04T05:33:39.503Z,107.20
2022-10-04T05:36:52.681Z,129.60
2022-10-04T05:39:27.720Z,129.53
2022-10-04T05:41:59.267Z,140.37
2022-10-04T05:44:28.288Z,167.57
2022-10-04T05:46:58.488Z,179.90
2022-10-04T05:49:27.552Z,148.93
2022-10-04T05:51:57.283Z,194.13
2022-10-04T05:54:27.749Z,132.27
2022-10-04T05:57:27.244Z,161.83
2022-10-04T06:00:09.374Z,137.20
2022-10-04T06:02:51.073Z,130.73
2022-10-04T06:05:28.811Z,139.97
2022-10-04T06:07:59.796Z,132.97
2022-10-04T06:10:45.252Z,155.27
2022-10-04T06:13:23.703Z,156.93
2022-10-04T06:15:58.613Z,147.63
2022-10-04T06:18:40.912Z,138.77
2022-10-04T06:21:19.418Z,156.63
2022-10-04T06:23:52.563Z,168.23
2022-10-04T06:26:24.884Z,143.87
2022-10-04T06:28:55.908Z,136.90
2022-10-04T06:31:48.488Z,126.60
2022-10-04T06:34:41.191Z,140.83
2022-10-04T06:37:34.723Z,254.20
2022-10-04T06:40:26.780Z,156.77
2022-10-04T06:43:05.059Z,162.67
2022-10-04T06:45:45.390Z,150.90
2022-10-04T06:48:26.978Z,115.03
2022-10-04T06:51:04.299Z,152.40
2022-10-04T06:53:41.540Z,143.20
2022-10-04T06:56:28.031Z,126.37
2022-10-04T06:59:10.981Z,146.37
2022-10-04T07:01:48.587Z,137.13
2022-10-04T07:04:25.763Z,160.87
2022-10-04T07:07:21.921Z,161.67
2022-10-04T07:09:50.176Z,179.17
2022-10-04T07:12:18.384Z,132.17
2022-10-04T07:14:49.037Z,132.07
2022-10-04T07:17:20.416Z,126.17
2022-10-04T07:19:49.523Z,163.90
2022-10-04T07:22:22.645Z,181.77
2022-10-04T07:24:58.752Z,143.00
2022-10-04T07:27:30.909Z,141.40
2022-10-04T07:29:59.374Z,177.90
2022-10-04T07:32:28.872Z,136.17
2022-10-04T07:35:00.851Z,133.67
2022-10-04T07:37:31.749Z,166.77
2022-10-04T07:40:02.448Z,131.93
2022-10-04T07:42:32.806Z,157.20
2022-10-04T07:45:06.112Z,138.03
2022-10-04T07:47:33.785Z,123.63
2022-10-04T07:50:01.295Z,135.23
2022-10-04T07:52:41.445Z,148.53
2022-10-04T07:55:16.918Z,140.57
2022-10-04T07:57:50.054Z,147.10
2022-10-04T08:00:20.207Z,169.93
2022-10-04T08:02:59.923Z,155.50
2022-10-04T08:05:30.249Z,205.90
2022-10-04T08:08:12.458Z,121.60
2022-10-04T08:10:52.112Z,145.73
2022-10-04T08:13:27.473Z,128.50
2022-10-04T08:16:01.237Z,158.60
2022-10-04T08:18:40.029Z,137.87
2022-10-04T08:21:08.767Z,114.77
2022-10-04T08:23:56.272Z,132.70
2022-10-04T08:26:44.806Z,139.77
2022-10-04T08:29:43.846Z,124.40
2022-10-04T08:32:24.250Z,228.30
2022-10-04T08:35:16.284Z,177.90
2022-10-04T08:37:53.633Z,126.97
2022-10-04T08:40:44.323Z,138.13
2022-10-04T08:43:24.322Z,156.37
2022-10-04T08:46:09.590Z,160.77
2022-10-04T08:49:25.339Z,129.77
2022-10-04T08:52:22.208Z,136.57
2022-10-04T08:55:20.831Z,149.73
2022-10-04T08:58:04.768Z,121.30
2022-10-04T09:00:39.680Z,125.17
2022-10-04T09:03:42.759Z,143.10
2022-10-04T09:06:20.118Z,119.20
2022-10-04T09:09:17.505Z,129.10
2022-10-04T09:11:58.272Z,215.37
2022-10-04T09:14:45.752Z,247.97
2022-10-04T09:17:22.545Z,124.63
2022-10-04T09:20:05.027Z,152.63
2022-10-04T09:22:48.716Z,161.67
2022-10-04T09:25:36.388Z,124.60
2022-10-04T09:28:20.617Z,151.00
2022-10-04T09:31:02.846Z,116.20
2022-10-04T09:33:49.331Z,169.30
2022-10-04T09:36:28.094Z,132.37
2022-10-04T09:39:30.396Z,156.73
2022-10-04T09:42:28.755Z,146.00
2022-10-04T09:45:27.395Z,139.90
2022-10-04T09:48:07.760Z,134.80
2022-10-04T09:50:48.731Z,160.03
2022-10-04T09:53:29.063Z,132.40
2022-10-04T09:56:18.316Z,254.83
2022-10-04T09:59:18.479Z,211.63
2022-10-04T10:02:09.957Z,180.00
2022-10-04T10:04:44.395Z,248.50
2022-10-04T10:07:31.412Z,216.17
2022-10-04T10:10:22.723Z,145.67
2022-10-04T10:13:37.801Z,146.70
2022-10-04T10:16:13.515Z,123.80
2022-10-04T10:18:50.293Z,113.13
2022-10-04T10:21:37.128Z,152.87
2022-10-04T10:24:17.920Z,158.60
2022-10-04T10:26:57.359Z,170.20
2022-10-04T10:29:54.379Z,170.87
2022-10-04T10:32:40.083Z,177.40
2022-10-04T10:35:17.551Z,147.50
2022-10-04T10:38:03.640Z,169.40
2022-10-04T10:40:42.203Z,133.63
2022-10-04T10:43:42.693Z,388.30
2022-10-04T10:46:23.470Z,185.73
2022-10-04T10:49:09.958Z,140.53
2022-10-04T10:52:06.127Z,162.37
2022-10-04T10:54:50.313Z,150.87
2022-10-04T10:57:34.287Z,168.50
2022-10-04T11:00:20.275Z,137.17
2022-10-04T11:03:32.482Z,303.90
2022-10-04T11:06:36.303Z,142.10
2022-10-04T11:09:29.460Z,432.87
2022-10-04T11:12:38.999Z,177.50
2022-10-04T11:15:36.188Z,193.07
2022-10-04T11:18:27.903Z,139.20
2022-10-04T11:21:39.816Z,130.13
2022-10-04T11:24:47.863Z,433.90
2022-10-04T11:27:28.321Z,121.60
2022-10-04T11:30:13.789Z,221.50
2022-10-04T11:33:17.282Z,213.37
2022-10-04T11:36:07.435Z,166.37
2022-10-04T11:39:03.277Z,137.10
2022-10-04T11:41:44.233Z,210.47
2022-10-04T11:44:43.520Z,201.77
2022-10-04T11:47:23.961Z,493.83
2022-10-04T11:50:04.753Z,439.73
2022-10-04T11:53:03.295Z,240.83
2022-10-04T11:55:54.237Z,373.20
2022-10-04T11:58:29.703Z,135.93
2022-10-04T12:01:19.874Z,512.10
2022-10-04T12:04:09.798Z,320.87
2022-10-04T12:06:50.517Z,348.53
2022-10-04T12:09:22.080Z,561.23
2022-10-04T12:12:40.055Z,558.33
2022-10-04T12:15:49.794Z,192.17
2022-10-04T12:18:44.419Z,554.33
2022-10-04T12:21:50.336Z,210.40
2022-10-04T12:24:38.322Z,228.40
2022-10-04T12:27:19.826Z,154.00
2022-10-04T12:30:15.819Z,129.90
2022-10-04T12:32:52.235Z,238.70
2022-10-04T12:35:29.674Z,132.43
2022-10-04T12:38:21.064Z,205.20
2022-10-04T12:40:57.303Z,203.37
2022-10-04T12:43:31.591Z,221.63
2022-10-04T12:46:11.933Z,215.47
2022-10-04T12:48:49.235Z,157.63
2022-10-04T12:51:28.597Z,246.90
2022-10-04T12:54:02.520Z,236.67
2022-10-04T12:56:39.571Z,233.63
2022-10-04T12:59:28.623Z,232.60
2022-10-04T13:02:03.342Z,308.37
2022-10-04T13:04:36.190Z,265.07
2022-10-04T13:07:15.931Z,261.07
2022-10-04T13:10:11.967Z,280.93
2022-10-04T13:13:04.422Z,280.43
2022-10-04T13:18:28.182Z,212.03
2022-10-04T13:21:01.778Z,274.37
2022-10-04T13:23:41.074Z,243.40
2022-10-04T13:26:30.016Z,231.73
2022-10-04T13:29:04.875Z,569.30
2022-10-04T13:31:36.692Z,259.03
2022-10-04T13:34:15.460Z,299.67
2022-10-04T13:36:54.211Z,256.70
2022-10-04T13:39:37.917Z,249.20
2022-10-04T13:42:28.828Z,161.17
2022-10-04T13:45:05.387Z,246.83
2022-10-04T13:47:44.937Z,567.87
2022-10-04T13:50:48.971Z,452.13
2022-10-04T13:53:45.715Z,256.17
2022-10-04T13:56:37.616Z,238.50
2022-10-04T13:59:11.283Z,442.73
2022-10-04T14:02:12.608Z,293.57
2022-10-04T14:05:15.957Z,271.60
2022-10-04T14:07:52.136Z,258.97
2022-10-04T14:10:42.760Z,287.43
2022-10-04T14:13:42.815Z,289.77
2022-10-04T14:16:56.116Z,271.23
2022-10-04T14:20:00.815Z,287.10
2022-10-04T14:22:50.190Z,262.13
2022-10-04T14:25:59.835Z,303.83
2022-10-04T14:28:59.820Z,288.17
2022-10-04T14:31:47.887Z,283.10
2022-10-04T14:34:35.075Z,276.57
2022-10-04T14:37:27.197Z,326.43
2022-10-04T14:40:15.238Z,335.03
2022-10-04T14:42:55.784Z,289.40
2022-10-04T14:45:35.127Z,331.90
2022-10-04T14:48:44.289Z,350.77
2022-10-04T14:51:37.690Z,282.57
2022-10-04T14:54:08.688Z,309.23
2022-10-04T14:56:44.783Z,314.57
2022-10-04T14:59:25.791Z,333.33
2022-10-04T15:02:14.452Z,345.00
2022-10-04T15:05:02.843Z,277.60
2022-10-04T15:07:33.325Z,325.17
2022-10-04T15:10:06.658Z,355.33
2022-10-04T15:13:09.926Z,307.97
2022-10-04T15:15:44.691Z,623.10
2022-10-04T15:18:28.095Z,255.33
2022-10-04T15:20:59.977Z,379.90
2022-10-04T15:23:37.864Z,357.93
2022-10-04T15:26:38.899Z,349.53
2022-10-04T15:29:10.580Z,406.83
2022-10-04T15:31:42.473Z,369.33
2022-10-04T15:34:24.819Z,384.60
2022-10-04T15:37:05.106Z,354.27
2022-10-04T15:39:58.799Z,418.47
2022-10-04T15:42:29.137Z,353.97
2022-10-04T15:45:14.382Z,354.67
2022-10-04T15:47:57.981Z,344.27
2022-10-04T15:50:27.800Z,328.53
2022-10-04T15:53:17.427Z,315.67
2022-10-04T15:56:27.107Z,422.90
2022-10-04T15:59:07.095Z,368.33
2022-10-04T16:01:45.942Z,434.40
2022-10-04T16:04:47.488Z,381.40
2022-10-04T16:07:32.523Z,388.60
2022-10-04T16:10:02.676Z,388.87
2022-10-04T16:12:33.077Z,383.60
2022-10-04T16:15:02.349Z,463.10
2022-10-04T16:17:41.640Z,424.37
2022-10-04T16:20:42.752Z,498.37
2022-10-04T16:23:29.009Z,368.27
2022-10-04T16:25:58.533Z,447.83
2022-10-04T16:28:56.214Z,393.60
2022-10-04T16:31:41.051Z,315.13
2022-10-04T16:34:18.452Z,369.73
2022-10-04T16:36:49.880Z,315.73
2022-10-04T16:39:51.815Z,402.60
2022-10-04T16:42:21.013Z,460.47
2022-10-04T16:44:54.491Z,478.97
2022-10-04T16:47:24.993Z,407.37
2022-10-04T16:49:55.080Z,393.77
2022-10-04T16:52:48.391Z,432.00
2022-10-04T16:55:28.630Z,383.87
2022-10-04T16:58:38.514Z,400.90
2022-10-04T17:01:44.975Z,451.17
2022-10-04T17:04:34.575Z,403.80
2022-10-04T17:07:09.801Z,428.50
2022-10-04T17:09:39.073Z,360.77
2022-10-04T17:12:15.928Z,485.10
2022-10-04T17:14:53.919Z,469.53
2022-10-04T17:17:29.859Z,420.13
2022-10-04T17:20:03.393Z,385.97
2022-10-04T17:22:38.652Z,495.67
2022-10-04T17:25:19.839Z,397.53
2022-10-04T17:27:50.201Z,350.47
2022-10-04T17:30:21.732Z,326.30
2022-10-04T17:33:19.388Z,521.63
2022-10-04T17:36:14.913Z,326.10
2022-10-04T17:38:48.661Z,419.40
2022-10-04T17:41:20.228Z,544.33
2022-10-04T17:44:23.607Z,374.77
2022-10-04T17:46:56.100Z,431.73
2022-10-04T17:49:50.820Z,473.90
2022-10-04T17:52:39.843Z,375.60
2022-10-04T17:55:17.409Z,440.27
2022-10-04T17:57:51.988Z,395.47
2022-10-04T18:00:20.997Z,419.33
2022-10-04T18:03:00.688Z,415.93
2022-10-04T18:05:31.030Z,453.47
2022-10-04T18:08:01.567Z,402.73
2022-10-04T18:10:32.744Z,405.33
2022-10-04T18:13:02.696Z,367.17
2022-10-04T18:15:33.529Z,468.30
2022-10-04T18:18:14.283Z,359.37
2022-10-04T18:20:58.477Z,411.30
2022-10-04T18:23:28.200Z,314.27
2022-10-04T18:25:59.373Z,223.03
2022-10-04T18:28:27.006Z,373.87
2022-10-04T18:31:00.359Z,410.97
2022-10-04T18:33:32.484Z,393.83
2022-10-04T18:36:07.370Z,300.97
2022-10-04T18:38:36.286Z,284.60
2022-10-04T18:41:13.453Z,423.73
2022-10-04T18:43:43.848Z,350.77
2022-10-04T18:46:20.980Z,321.57
2022-10-04T18:48:53.682Z,333.53
2022-10-04T18:51:26.792Z,437.17
2022-10-04T18:54:10.317Z,448.40
2022-10-04T18:56:42.002Z,183.00
2022-10-04T18:59:32.929Z,402.73
2022-10-04T19:02:09.125Z,399.07
2022-10-04T19:04:45.840Z,382.90
2022-10-04T19:07:16.560Z,436.70
2022-10-04T19:10:00.425Z,437.53
2022-10-04T19:12:33.831Z,301.00
2022-10-04T19:15:06.544Z,359.70
2022-10-04T19:17:36.668Z,415.73
2022-10-04T19:20:07.120Z,280.67
2022-10-04T19:22:46.419Z,544.40
2022-10-04T19:25:31.991Z,516.40
2022-10-04T19:28:04.236Z,553.23
2022-10-04T19:30:48.765Z,528.43
2022-10-04T19:33:20.274Z,517.53
2022-10-04T19:35:58.668Z,458.93
2022-10-04T19:38:40.465Z,517.03
2022-10-04T19:41:11.909Z,457.70
2022-10-04T19:43:46.765Z,563.83
2022-10-04T19:46:24.400Z,455.63
2022-10-04T19:48:53.205Z,612.10
2022-10-04T19:51:29.091Z,591.63
2022-10-04T19:54:03.992Z,222.50
2022-10-04T19:56:33.577Z,175.37
2022-10-04T19:59:08.059Z,117.60
2022-10-04T20:01:36.459Z,177.40
2022-10-04T20:04:26.497Z,260.10
2022-10-04T20:06:56.828Z,170.47
2022-10-04T20:09:31.295Z,105.97
2022-10-04T20:11:59.333Z,114.77
2022-10-04T20:15:08.708Z,188.83
2022-10-04T20:17:37.728Z,125.40
2022-10-04T20:20:05.401Z,153.87
2022-10-04T20:22:54.971Z,190.80
2022-10-04T20:25:59.871Z,226.20
2022-10-04T20:28:44.655Z,156.13
2022-10-04T20:31:50.205Z,191.33
2022-10-04T20:34:32.898Z,220.83
2022-10-04T20:37:00.583Z,216.23
2022-10-04T20:40:01.316Z,186.87
2022-10-04T20:42:38.881Z,222.33
2022-10-04T20:45:43.848Z,225.27
2022-10-04T20:48:14.924Z,226.13
2022-10-04T20:50:43.284Z,193.23
2022-10-04T20:53:17.148Z,237.70
2022-10-04T20:55:46.002Z,123.77
2022-10-04T20:58:31.502Z,157.80
2022-10-04T21:01:10.864Z,231.90
2022-10-04T21:03:38.430Z,256.03
2022-10-04T21:06:08.467Z,323.00
2022-10-04T21:08:36.192Z,320.50
2022-10-04T21:11:19.441Z,320.90
2022-10-04T21:13:53.718Z,272.07
2022-10-04T21:16:43.633Z,187.20
2022-10-04T21:19:44.784Z,302.07
2022-10-04T21:22:33.150Z,173.70
2022-10-04T21:25:01.673Z,296.67
2022-10-04T21:27:30.626Z,326.40
2022-10-04T21:29:58.284Z,411.43
2022-10-04T21:32:27.608Z,273.87
2022-10-04T21:34:55.145Z,310.90
2022-10-04T21:37:22.849Z,373.67
2022-10-04T21:39:50.446Z,378.03
2022-10-04T21:42:18.128Z,295.17
2022-10-04T21:44:45.648Z,310.80
2022-10-04T21:47:13.172Z,396.47
2022-10-04T21:49:42.400Z,296.73
2022-10-04T21:52:10.153Z,356.10
2022-10-04T21:54:37.695Z,429.80
2022-10-04T21:57:05.364Z,338.60
2022-10-04T21:59:32.897Z,156.53
2022-10-04T22:02:00.792Z,383.33
2022-10-04T22:04:28.388Z,332.90
2022-10-04T22:06:57.282Z,380.63
2022-10-04T22:09:24.816Z,414.70
2022-10-04T22:11:52.336Z,397.97
2022-10-04T22:14:19.911Z,455.27
2022-10-04T22:16:47.992Z,377.10
2022-10-04T22:19:15.732Z,426.57
2022-10-04T22:21:43.299Z,422.80
2022-10-04T22:24:17.213Z,480.37
2022-10-04T22:26:44.980Z,419.70
2022-10-04T22:29:14.260Z,463.57
2022-10-04T22:31:44.375Z,438.53
2022-10-04T22:34:17.338Z,456.87
2022-10-04T22:36:46.017Z,419.70
2022-10-04T22:39:17.181Z,460.33
2022-10-04T22:41:46.352Z,446.83
2022-10-04T22:44:16.649Z,469.77
2022-10-04T22:46:45.958Z,385.03
2022-10-04T22:49:15.196Z,412.93
2022-10-04T22:51:44.700Z,437.47
2022-10-04T22:54:13.353Z,402.13
2022-10-04T22:56:42.563Z,414.37
2022-10-04T22:59:11.334Z,394.67
2022-10-04T23:01:39.217Z,373.90
2022-10-04T23:04:12.764Z,483.97
2022-10-04T23:06:40.287Z,484.43
2022-10-04T23:09:07.855Z,395.20
2022-10-04T23:11:35.364Z,337.00
2022-10-04T23:14:04.246Z,470.03
2022-10-04T23:16:31.921Z,502.03
2022-10-04T23:19:02.289Z,412.70
2022-10-04T23:21:34.504Z,392.83
2022-10-04T23:24:07.615Z,342.77
2022-10-04T23:26:38.403Z,132.30
2022-10-04T23:29:08.664Z,289.80
2022-10-04T23:31:37.874Z,149.77
2022-10-04T23:34:15.576Z,317.93
2022-10-04T23:36:43.218Z,216.63
2022-10-04T23:39:14.877Z,333.23
2022-10-04T23:41:43.110Z,306.57
2022-10-04T23:44:14.090Z,309.00
2022-10-04T23:46:41.744Z,277.27
2022-10-04T23:49:13.379Z,355.03
2022-10-04T23:51:40.952Z,298.57
2022-10-04T23:54:11.931Z,354.23
2022-10-04T23:56:39.457Z,388.13
2022-10-04T23:59:15.715Z,328.33
